createdAt,value
2018-03-14T00:00:47.928Z,1.83
2018-03-14T00:03:16.551Z,2.55
2018-03-14T00:05:50.003Z,2.87
2018-03-14T00:08:18.545Z,2.47
2018-03-14T00:10:47.105Z,2.78
2018-03-14T00:13:15.672Z,1.98
2018-03-14T00:15:44.225Z,2.70
2018-03-14T00:18:14.003Z,1.92
2018-03-14T00:20:42.595Z,3.17
2018-03-14T00:23:13.764Z,3.05
2018-03-14T00:25:42.311Z,2.62
2018-03-14T00:28:10.957Z,2.67
2018-03-14T00:30:39.513Z,4.43
2018-03-14T00:33:10.563Z,2.53
2018-03-14T00:35:39.230Z,2.47
2018-03-14T00:38:07.800Z,2.62
2018-03-14T00:40:38.344Z,3.58
2018-03-14T00:43:06.888Z,3.35
2018-03-14T00:45:35.571Z,2.75
2018-03-14T00:48:10.549Z,3.80
2018-03-14T00:50:39.058Z,2.65
2018-03-14T00:53:07.933Z,2.42
2018-03-14T00:58:08.630Z,3.25
2018-03-14T01:00:37.230Z,2.67
2018-03-14T01:03:05.820Z,3.05
2018-03-14T01:05:34.814Z,3.95
2018-03-14T01:08:03.489Z,2.60
2018-03-14T01:10:32.019Z,4.60
2018-03-14T01:13:00.565Z,3.05
2018-03-14T01:15:29.454Z,3.72
2018-03-14T01:17:58.217Z,3.58
2018-03-14T01:20:26.733Z,2.75
2018-03-14T01:22:55.232Z,2.90
2018-03-14T01:25:25.280Z,3.70
2018-03-14T01:27:53.874Z,3.00
2018-03-14T01:30:22.479Z,3.05
2018-03-14T01:32:50.997Z,2.55
2018-03-14T01:35:19.590Z,3.47
2018-03-14T01:37:48.131Z,2.92
2018-03-14T01:40:21.540Z,2.92
2018-03-14T01:42:50.107Z,3.72
2018-03-14T01:45:18.680Z,3.75
2018-03-14T01:47:47.192Z,3.97
2018-03-14T01:50:16.175Z,3.97
2018-03-14T01:52:44.751Z,3.05
2018-03-14T01:55:13.407Z,2.80
2018-03-14T01:57:41.932Z,2.55
2018-03-14T02:00:11.803Z,2.83
2018-03-14T02:02:40.386Z,3.30
2018-03-14T02:05:09.789Z,4.07
2018-03-14T02:07:38.373Z,4.57
2018-03-14T02:10:10.985Z,3.40
2018-03-14T02:12:39.601Z,4.20
2018-03-14T02:15:09.040Z,3.35
2018-03-14T02:17:37.892Z,3.20
2018-03-14T02:20:07.581Z,3.65
2018-03-14T02:22:36.400Z,3.70
2018-03-14T02:25:05.037Z,5.37
2018-03-14T02:27:33.628Z,3.95
2018-03-14T02:30:08.576Z,4.10
2018-03-14T02:32:37.116Z,3.72
2018-03-14T02:35:06.503Z,4.00
2018-03-14T02:37:35.091Z,3.62
2018-03-14T02:40:04.912Z,4.85
2018-03-14T02:42:33.447Z,5.50
2018-03-14T02:45:01.979Z,4.47
2018-03-14T02:47:30.841Z,5.00
2018-03-14T02:49:59.349Z,5.80
2018-03-14T02:52:27.864Z,5.28
2018-03-14T02:54:56.341Z,7.22
2018-03-14T02:57:25.852Z,4.60
2018-03-14T03:00:08.397Z,4.10
2018-03-14T03:02:36.898Z,5.68
2018-03-14T03:05:05.577Z,5.20
2018-03-14T03:07:34.215Z,4.15
2018-03-14T03:10:03.071Z,6.03
2018-03-14T03:12:31.617Z,7.55
2018-03-14T03:15:00.206Z,5.82
2018-03-14T03:17:28.731Z,5.95
2018-03-14T03:19:57.625Z,6.55
2018-03-14T03:22:26.151Z,7.20
2018-03-14T03:24:54.644Z,7.85
2018-03-14T03:27:23.167Z,7.25
2018-03-14T03:29:52.164Z,7.32
2018-03-14T03:32:20.829Z,7.57
2018-03-14T03:34:49.500Z,6.95
2018-03-14T03:37:18.359Z,7.75
2018-03-14T03:40:08.449Z,8.63
2018-03-14T03:42:37.032Z,7.03
2018-03-14T03:45:07.055Z,9.15
2018-03-14T03:47:36.960Z,7.03
2018-03-14T03:50:06.581Z,7.82
2018-03-14T03:52:35.296Z,7.93
2018-03-14T03:55:03.927Z,7.30
2018-03-14T03:57:32.485Z,10.25
2018-03-14T04:00:02.616Z,8.57
2018-03-14T04:02:31.117Z,9.68
2018-03-14T04:04:59.654Z,10.75
2018-03-14T04:07:28.215Z,9.52
2018-03-14T04:09:56.766Z,9.63
2018-03-14T04:12:25.435Z,9.80
2018-03-14T04:14:55.367Z,9.98
2018-03-14T04:17:23.963Z,9.35
2018-03-14T04:19:52.639Z,8.48
2018-03-14T04:22:21.168Z,9.48
2018-03-14T04:27:26.211Z,6.97
2018-03-14T04:29:54.772Z,8.90
2018-03-14T04:32:30.848Z,10.43
2018-03-14T04:34:59.427Z,9.85
2018-03-14T04:37:27.962Z,8.23
2018-03-14T04:39:56.493Z,8.57
2018-03-14T04:42:25.492Z,10.63
2018-03-14T04:44:54.172Z,7.82
2018-03-14T04:47:22.758Z,10.95
2018-03-14T04:49:51.452Z,14.75
2018-03-14T04:52:22.523Z,11.80
2018-03-14T04:58:13.270Z,11.00
2018-03-14T05:00:45.922Z,10.65
2018-03-14T05:03:14.787Z,10.10
2018-03-14T05:05:43.448Z,10.43
2018-03-14T05:08:12.041Z,11.45
2018-03-14T05:10:41.869Z,10.55
2018-03-14T05:13:10.372Z,9.95
2018-03-14T05:15:39.008Z,10.02
2018-03-14T05:18:07.721Z,9.80
2018-03-14T05:20:36.424Z,7.30
2018-03-14T05:23:05.023Z,7.82
2018-03-14T05:25:35.941Z,8.68
2018-03-14T05:29:30.464Z,9.52
2018-03-14T05:31:59.310Z,10.05
2018-03-14T05:34:31.871Z,7.72
2018-03-14T05:37:00.583Z,7.43
2018-03-14T05:39:29.279Z,7.75
2018-03-14T05:41:57.851Z,8.35
2018-03-14T05:44:26.697Z,8.52
2018-03-14T05:46:55.312Z,5.97
2018-03-14T05:49:24.349Z,6.45
2018-03-14T05:51:52.936Z,6.35
2018-03-14T05:54:22.875Z,5.93
2018-03-14T05:56:52.114Z,5.75
2018-03-14T05:59:20.798Z,7.50
2018-03-14T06:01:49.590Z,7.32
2018-03-14T06:04:22.796Z,8.32
2018-03-14T06:06:51.399Z,7.10
2018-03-14T06:09:20.004Z,8.45
2018-03-14T06:11:48.598Z,9.20
2018-03-14T06:14:19.078Z,8.02
2018-03-14T06:16:48.003Z,10.35
2018-03-14T06:19:16.865Z,7.60
2018-03-14T06:21:46.940Z,9.93
2018-03-14T06:24:16.806Z,8.27
2018-03-14T06:26:45.419Z,10.18
2018-03-14T06:29:13.983Z,7.85
2018-03-14T06:31:42.514Z,8.23
2018-03-14T06:34:11.054Z,8.23
2018-03-14T06:36:39.601Z,8.68
2018-03-14T06:39:08.178Z,10.68
2018-03-14T06:41:38.259Z,8.90
2018-03-14T06:44:07.789Z,8.65
2018-03-14T06:46:36.928Z,11.23
2018-03-14T06:49:07.096Z,8.85
2018-03-14T06:51:41.317Z,13.02
2018-03-14T06:54:10.997Z,9.35
2018-03-14T06:56:40.907Z,8.35
2018-03-14T07:01:24.950Z,11.90
2018-03-14T07:04:04.674Z,7.20
2018-03-14T07:06:33.221Z,9.38
2018-03-14T07:09:02.032Z,9.02
2018-03-14T07:11:30.480Z,9.23
2018-03-14T07:13:58.983Z,7.87
2018-03-14T07:16:27.904Z,9.18
2018-03-14T07:18:56.569Z,9.07
2018-03-14T07:21:25.180Z,8.27
2018-03-14T07:23:54.003Z,7.35
2018-03-14T07:26:23.023Z,9.48
2018-03-14T07:28:59.297Z,7.12
2018-03-14T07:31:28.775Z,7.03
2018-03-14T07:33:59.676Z,8.10
2018-03-14T07:36:29.377Z,9.57
2018-03-14T07:38:58.500Z,6.22
2018-03-14T07:41:27.676Z,8.02
2018-03-14T07:43:56.526Z,7.15
2018-03-14T07:46:26.502Z,8.23
2018-03-14T07:49:00.312Z,7.25
2018-03-14T07:51:30.163Z,8.02
2018-03-14T07:53:58.721Z,8.65
2018-03-14T07:56:27.339Z,9.20
2018-03-14T07:58:56.020Z,7.75
2018-03-14T08:01:24.573Z,8.07
2018-03-14T08:03:53.240Z,7.95
2018-03-14T08:06:22.075Z,8.15
2018-03-14T08:08:50.619Z,6.78
2018-03-14T08:11:19.164Z,6.30
2018-03-14T08:13:48.358Z,7.12
2018-03-14T08:16:17.137Z,6.43
2018-03-14T08:18:46.320Z,7.30
2018-03-14T08:21:14.900Z,4.72
2018-03-14T08:23:43.498Z,7.12
2018-03-14T08:26:12.588Z,7.15
2018-03-14T08:28:41.390Z,6.72
2018-03-14T08:31:10.048Z,4.57
2018-03-14T08:33:38.631Z,6.60
2018-03-14T08:38:42.395Z,4.55
2018-03-14T08:41:10.990Z,5.85
2018-03-14T08:43:39.596Z,4.85
2018-03-14T08:46:08.122Z,6.45
2018-03-14T08:48:36.759Z,5.15
2018-03-14T08:51:06.564Z,6.12
2018-03-14T08:53:37.291Z,6.07
2018-03-14T08:56:05.986Z,4.43
2018-03-14T08:58:34.731Z,5.12
2018-03-14T09:01:03.338Z,4.28
2018-03-14T09:03:31.969Z,4.35
2018-03-14T09:06:21.101Z,3.65
2018-03-14T09:09:07.088Z,4.20
2018-03-14T09:25:12.437Z,4.07
2018-03-14T09:27:41.141Z,2.85
2018-03-14T09:30:10.407Z,3.12
2018-03-14T09:32:39.147Z,3.83
2018-03-14T09:35:08.336Z,2.90
2018-03-14T09:37:37.482Z,3.10
2018-03-14T09:40:06.350Z,2.78
2018-03-14T09:42:34.938Z,2.35
2018-03-14T09:45:03.613Z,3.60
2018-03-14T09:47:32.118Z,5.00
2018-03-14T09:50:04.972Z,3.28
2018-03-14T09:52:33.485Z,3.12
2018-03-14T09:55:02.103Z,2.25
2018-03-14T09:57:30.660Z,2.22
2018-03-14T09:59:59.325Z,1.80
2018-03-14T10:02:27.950Z,2.60
2018-03-14T10:04:56.502Z,2.87
2018-03-14T10:07:25.364Z,2.95
2018-03-14T10:09:53.917Z,2.28
2018-03-14T10:12:22.591Z,2.30
2018-03-14T10:14:51.144Z,2.20
2018-03-14T10:17:20.070Z,2.15
2018-03-14T10:19:48.625Z,2.30
2018-03-14T10:22:17.313Z,2.62
2018-03-14T10:24:47.177Z,3.50
2018-03-14T10:27:15.655Z,2.60
2018-03-14T10:29:44.296Z,2.65
2018-03-14T10:32:12.939Z,3.00
2018-03-14T10:34:41.523Z,3.05
2018-03-14T10:37:10.208Z,2.25
2018-03-14T10:39:38.758Z,2.45
2018-03-14T10:42:07.507Z,2.20
2018-03-14T10:44:36.037Z,2.75
2018-03-14T10:47:04.645Z,2.95
2018-03-14T10:49:52.231Z,4.78
2018-03-14T10:52:20.850Z,2.55
2018-03-14T10:54:49.615Z,2.47
2018-03-14T10:57:25.117Z,2.40
2018-03-14T10:59:53.644Z,3.10
2018-03-14T11:02:23.314Z,4.15
2018-03-14T11:04:52.438Z,2.97
2018-03-14T11:07:21.356Z,3.00
2018-03-14T11:09:50.070Z,2.87
2018-03-14T11:12:18.700Z,2.87
2018-03-14T11:14:47.312Z,3.10
2018-03-14T11:17:15.859Z,2.72
2018-03-14T11:19:44.449Z,3.05
2018-03-14T11:22:14.026Z,2.50
2018-03-14T11:24:42.898Z,2.58
2018-03-14T11:27:11.569Z,2.62
2018-03-14T11:29:40.254Z,4.00
2018-03-14T11:32:10.031Z,4.15
2018-03-14T11:34:44.452Z,4.75
2018-03-14T11:37:13.235Z,3.92
2018-03-14T11:39:41.916Z,2.95
2018-03-14T11:42:10.549Z,4.00
2018-03-14T11:44:39.177Z,4.35
2018-03-14T11:47:08.076Z,2.35
2018-03-14T11:49:37.011Z,3.70
2018-03-14T11:52:05.710Z,4.18
2018-03-14T11:54:34.383Z,3.33
2018-03-14T11:57:03.071Z,3.15
2018-03-14T11:59:32.606Z,3.33
2018-03-14T12:02:01.267Z,4.12
2018-03-14T12:04:29.998Z,4.80
2018-03-14T12:06:58.968Z,2.85
2018-03-14T12:09:27.835Z,3.50
2018-03-14T12:11:56.602Z,4.28
2018-03-14T12:14:25.472Z,7.30
2018-03-14T12:16:54.459Z,5.60
2018-03-14T12:19:23.353Z,3.97
2018-03-14T12:21:52.244Z,4.30
2018-03-14T12:24:20.868Z,4.50
2018-03-14T12:26:49.587Z,4.90
2018-03-14T12:29:18.298Z,3.33
2018-03-14T12:31:46.857Z,4.45
2018-03-14T12:34:16.722Z,3.70
2018-03-14T12:36:45.178Z,2.92
2018-03-14T12:39:13.852Z,4.03
2018-03-14T12:41:42.625Z,3.30
2018-03-14T12:44:11.762Z,3.10
2018-03-14T12:46:40.222Z,3.70
2018-03-14T12:49:08.708Z,4.60
2018-03-14T12:51:45.204Z,4.20
2018-03-14T12:54:13.844Z,2.47
2018-03-14T12:56:46.616Z,5.55
2018-03-14T12:59:15.070Z,4.80
2018-03-14T13:01:43.991Z,5.47
2018-03-14T13:04:12.613Z,5.85
2018-03-14T13:06:41.312Z,5.60
2018-03-14T13:09:10.072Z,4.75
2018-03-14T13:11:38.717Z,6.10
2018-03-14T13:14:07.266Z,5.20
2018-03-14T13:16:38.419Z,4.80
2018-03-14T13:19:06.949Z,6.20
2018-03-14T13:21:35.578Z,6.20
2018-03-14T13:24:04.133Z,5.37
2018-03-14T13:26:32.663Z,5.20
2018-03-14T13:29:01.348Z,5.07
2018-03-14T13:31:29.959Z,5.03
2018-03-14T13:34:01.129Z,4.75
2018-03-14T13:36:29.685Z,6.30
2018-03-14T13:38:58.200Z,3.17
2018-03-14T13:41:27.172Z,6.30
2018-03-14T13:43:55.656Z,3.90
2018-03-14T13:46:24.195Z,4.70
2018-03-14T13:48:53.822Z,4.68
2018-03-14T13:51:22.331Z,6.18
2018-03-14T13:53:50.799Z,3.90
2018-03-14T13:56:19.403Z,3.85
2018-03-14T13:58:47.967Z,4.65
2018-03-14T14:01:16.876Z,5.03
2018-03-14T14:06:19.314Z,5.22
2018-03-14T14:08:49.338Z,5.30
2018-03-14T14:11:17.922Z,4.10
2018-03-14T14:13:46.506Z,4.43
2018-03-14T14:16:15.117Z,5.50
2018-03-14T14:18:44.118Z,5.20
2018-03-14T14:21:12.574Z,5.30
2018-03-14T14:23:41.111Z,4.45
2018-03-14T14:26:09.646Z,3.55
2018-03-14T14:28:38.885Z,6.18
2018-03-14T14:31:07.507Z,3.78
2018-03-14T14:33:36.323Z,3.62
2018-03-14T14:36:05.822Z,3.28
2018-03-14T14:38:35.143Z,4.43
2018-03-14T14:41:03.900Z,4.05
2018-03-14T14:43:32.387Z,5.57
2018-03-14T14:46:00.796Z,4.20
2018-03-14T14:48:29.556Z,5.03
2018-03-14T14:50:58.046Z,5.25
2018-03-14T14:53:26.602Z,4.62
2018-03-14T14:55:55.184Z,4.35
2018-03-14T14:58:27.691Z,4.75
2018-03-14T15:00:56.325Z,5.82
2018-03-14T15:03:24.845Z,5.78
2018-03-14T15:05:53.366Z,6.12
2018-03-14T15:08:21.975Z,4.55
2018-03-14T15:10:50.914Z,4.07
2018-03-14T15:13:21.768Z,5.62
2018-03-14T15:15:50.318Z,7.00
2018-03-14T15:18:18.905Z,5.93
2018-03-14T15:20:47.427Z,5.87
2018-03-14T15:23:15.947Z,5.03
2018-03-14T15:25:44.506Z,5.03
2018-03-14T15:28:13.053Z,5.45
2018-03-14T15:30:41.600Z,5.43
2018-03-14T15:33:10.670Z,6.32
2018-03-14T15:35:39.381Z,4.15
2018-03-14T15:38:09.230Z,3.50
2018-03-14T15:40:37.779Z,4.70
2018-03-14T15:43:06.460Z,3.22
2018-03-14T15:45:34.976Z,3.78
2018-03-14T15:48:04.613Z,4.75
2018-03-14T15:50:33.175Z,6.40
2018-03-14T15:53:01.859Z,6.97
2018-03-14T15:55:31.056Z,4.35
2018-03-14T15:58:02.139Z,5.40
2018-03-14T16:00:30.578Z,4.00
2018-03-14T16:02:59.231Z,5.57
2018-03-14T16:05:27.757Z,5.05
2018-03-14T16:07:56.295Z,5.00
2018-03-14T16:10:24.828Z,6.12
2018-03-14T16:12:53.817Z,5.18
2018-03-14T16:15:22.274Z,5.12
2018-03-14T16:17:51.336Z,6.40
2018-03-14T16:20:19.950Z,6.22
2018-03-14T16:25:10.514Z,3.55
2018-03-14T16:27:39.074Z,3.42
2018-03-14T16:30:08.539Z,4.40
2018-03-14T16:32:37.308Z,4.43
2018-03-14T16:35:05.821Z,5.20
2018-03-14T16:37:34.753Z,4.55
2018-03-14T16:40:04.241Z,4.22
2018-03-14T16:42:40.209Z,6.32
2018-03-14T16:45:10.236Z,6.85
2018-03-14T16:47:38.941Z,5.40
2018-03-14T16:50:12.080Z,5.68
2018-03-14T16:52:40.780Z,6.95
2018-03-14T16:55:10.080Z,6.50
2018-03-14T16:57:50.284Z,6.07
2018-03-14T17:00:18.867Z,5.15
2018-03-14T17:02:47.441Z,5.15
2018-03-14T17:05:15.963Z,4.70
2018-03-14T17:07:45.228Z,5.25
2018-03-14T17:10:15.433Z,5.70
2018-03-14T17:12:44.008Z,7.30
2018-03-14T17:15:12.598Z,4.85
2018-03-14T17:17:42.526Z,6.43
2018-03-14T17:20:11.174Z,6.78
2018-03-14T17:22:39.629Z,4.68
2018-03-14T17:25:09.874Z,6.20
2018-03-14T17:27:47.527Z,7.03
2018-03-14T17:30:16.153Z,5.70
2018-03-14T17:32:44.618Z,6.37
2018-03-14T17:35:13.351Z,4.25
2018-03-14T17:37:41.832Z,4.18
2018-03-14T17:40:10.428Z,4.10
2018-03-14T17:42:39.077Z,5.07
2018-03-14T17:45:08.728Z,3.87
2018-03-14T17:47:38.118Z,4.40
2018-03-14T17:50:07.325Z,3.62
2018-03-14T17:52:35.844Z,5.53
2018-03-14T17:55:04.353Z,5.05
2018-03-14T17:57:33.095Z,6.80
2018-03-14T18:00:03.271Z,4.00
2018-03-14T18:02:35.212Z,3.87
2018-03-14T18:05:03.808Z,3.92
2018-03-14T18:07:36.871Z,5.07
2018-03-14T18:10:05.534Z,5.65
2018-03-14T18:14:58.133Z,4.97
2018-03-14T18:17:26.755Z,10.93
2018-03-14T18:19:55.363Z,3.95
2018-03-14T18:22:25.240Z,2.90
2018-03-14T18:24:54.579Z,6.10
2018-03-14T18:27:23.854Z,6.43
2018-03-14T18:29:52.824Z,6.20
2018-03-14T18:32:21.626Z,4.12
2018-03-14T18:34:50.235Z,5.57
2018-03-14T18:37:19.331Z,7.55
2018-03-14T18:39:48.204Z,6.25
2018-03-14T18:42:17.251Z,5.93
2018-03-14T18:44:46.819Z,5.65
2018-03-14T18:47:23.071Z,7.28
2018-03-14T18:49:51.920Z,5.10
2018-03-14T18:52:20.950Z,7.62
2018-03-14T18:54:49.908Z,6.25
2018-03-14T18:59:53.826Z,8.13
2018-03-14T19:02:22.903Z,6.03
2018-03-14T19:04:52.742Z,4.97
2018-03-14T19:07:21.594Z,6.32
2018-03-14T19:09:52.971Z,4.32
2018-03-14T19:12:22.360Z,9.23
2018-03-14T19:14:55.557Z,7.68
2018-03-14T19:17:28.340Z,7.07
2018-03-14T19:19:58.220Z,5.35
2018-03-14T19:22:27.119Z,6.12
2018-03-14T19:24:56.287Z,5.62
2018-03-14T19:27:28.368Z,6.60
2018-03-14T19:29:57.349Z,7.57
2018-03-14T19:32:28.421Z,6.82
2018-03-14T19:34:57.100Z,6.55
2018-03-14T19:37:25.749Z,7.05
2018-03-14T19:39:56.115Z,6.03
2018-03-14T19:42:24.806Z,5.35
2018-03-14T19:44:54.012Z,7.00
2018-03-14T19:47:22.601Z,7.35
2018-03-14T19:49:51.207Z,6.78
2018-03-14T19:52:19.839Z,5.07
2018-03-14T19:54:48.416Z,8.10
2018-03-14T19:57:17.122Z,5.50
2018-03-14T19:59:45.947Z,5.93
2018-03-14T20:02:14.976Z,6.97
2018-03-14T20:04:43.534Z,6.97
2018-03-14T20:07:13.632Z,7.57
2018-03-14T20:09:42.177Z,7.68
2018-03-14T20:12:10.897Z,8.10
2018-03-14T20:14:39.745Z,7.35
2018-03-14T20:17:08.280Z,6.43
2018-03-14T20:19:36.879Z,6.50
2018-03-14T20:22:05.518Z,7.18
2018-03-14T20:24:35.619Z,7.28
2018-03-14T20:27:04.215Z,8.32
2018-03-14T20:29:33.805Z,7.30
2018-03-14T20:32:02.598Z,8.38
2018-03-14T20:34:31.414Z,5.95
2018-03-14T20:37:00.029Z,6.43
2018-03-14T20:39:28.921Z,6.87
2018-03-14T20:41:57.623Z,6.50
2018-03-14T20:44:26.381Z,10.23
2018-03-14T20:46:55.586Z,5.70
2018-03-14T20:49:24.093Z,7.80
2018-03-14T20:51:52.642Z,8.23
2018-03-14T20:54:21.224Z,8.20
2018-03-14T20:56:50.012Z,9.20
2018-03-14T20:59:18.911Z,6.85
2018-03-14T21:01:47.596Z,8.07
2018-03-14T21:04:16.229Z,8.38
2018-03-14T21:06:45.154Z,7.50
2018-03-14T21:09:13.642Z,8.80
2018-03-14T21:11:42.120Z,7.75
2018-03-14T21:14:10.631Z,8.13
2018-03-14T21:16:40.132Z,8.48
2018-03-14T21:19:08.695Z,6.93
2018-03-14T21:21:38.351Z,7.57
2018-03-14T21:24:06.812Z,8.90
2018-03-14T21:26:35.318Z,11.07
2018-03-14T21:29:03.902Z,9.43
2018-03-14T21:31:32.433Z,11.20
2018-03-14T21:34:00.915Z,8.20
2018-03-14T21:36:34.554Z,8.00
2018-03-14T21:39:03.227Z,8.25
2018-03-14T21:41:31.895Z,9.40
2018-03-14T21:44:01.471Z,7.85
2018-03-14T21:46:29.970Z,7.75
2018-03-14T21:48:58.695Z,8.57
2018-03-14T21:51:27.178Z,9.02
2018-03-14T21:53:56.202Z,13.55
2018-03-14T21:56:43.369Z,9.68
2018-03-14T21:59:12.168Z,11.35
2018-03-14T22:01:41.369Z,9.25
2018-03-14T22:04:09.992Z,7.25
2018-03-14T22:06:38.720Z,8.50
2018-03-14T22:09:07.336Z,7.78
2018-03-14T22:11:37.343Z,8.90
2018-03-14T22:14:06.129Z,14.85
2018-03-14T22:16:34.617Z,8.85
2018-03-14T22:19:03.195Z,10.32
2018-03-14T22:21:31.891Z,12.20
2018-03-14T22:24:00.554Z,10.35
2018-03-14T22:29:03.407Z,9.88
2018-03-14T22:31:32.784Z,11.30
2018-03-14T22:34:04.125Z,8.98
2018-03-14T22:36:35.112Z,9.60
2018-03-14T22:39:04.170Z,10.20
2018-03-14T22:41:32.694Z,12.10
2018-03-14T22:44:01.324Z,11.38
2018-03-14T22:46:31.221Z,13.95
2018-03-14T22:48:59.926Z,10.85
2018-03-14T22:51:28.591Z,11.32
2018-03-14T22:53:57.380Z,13.10
2018-03-14T22:56:28.366Z,11.48
2018-03-14T22:58:57.304Z,12.23
2018-03-14T23:01:26.563Z,11.40
2018-03-14T23:03:56.509Z,10.87
2018-03-14T23:06:26.597Z,11.40
2018-03-14T23:08:55.453Z,13.50
2018-03-14T23:11:24.090Z,11.75
2018-03-14T23:13:53.934Z,14.95
2018-03-14T23:16:24.680Z,11.63
2018-03-14T23:18:54.278Z,12.27
2018-03-14T23:21:23.426Z,11.47
2018-03-14T23:23:52.452Z,13.27
2018-03-14T23:26:29.970Z,10.07
2018-03-14T23:28:58.639Z,13.97
2018-03-14T23:31:27.940Z,12.53
2018-03-14T23:33:57.134Z,14.70
2018-03-14T23:36:26.154Z,11.97
2018-03-14T23:38:54.890Z,11.60
2018-03-14T23:41:24.111Z,10.73
2018-03-14T23:43:53.022Z,17.00
2018-03-14T23:46:21.789Z,11.07
2018-03-14T23:48:50.692Z,12.63
2018-03-14T23:51:19.392Z,13.40
2018-03-14T23:53:48.355Z,12.57
2018-03-14T23:56:17.309Z,11.17
2018-03-14T23:58:46.002Z,13.97
